Time,TemperatureF,DewpointF,PressureIn,WindDirection,WindDirectionDegrees,WindSpeedMPH,WindSpeedGustMPH,Humidity,HourlyPrecipIn,Conditions,Clouds,dailyrainin,SoftwareType,DateUTC
2013-01-08 00:00:00,66.5,64.7,30.11,NNE,31,1.0,1.0,94,0.00,,SKC,0.00,VWS V14.01,2013-01-08 05:00:00,
2013-01-08 00:01:00,66.5,64.7,30.11,NNW,345,0.0,1.0,94,0.00,,SKC,0.00,VWS V14.01,2013-01-08 05:01:00,
2013-01-08 00:02:00,66.4,64.6,30.12,NNE,16,1.0,2.0,94,0.00,,SKC,0.00,VWS V14.01,2013-01-08 05:02:00,
2013-01-08 00:07:00,66.5,64.7,30.11,NE,46,2.0,5.0,94,0.00,,SKC,0.00,VWS V14.01,2013-01-08 05:07:00,
2013-01-08 00:12:00,66.6,64.8,30.11,NE,50,4.0,5.0,94,0.00,,SKC,0.00,VWS V14.01,2013-01-08 05:12:00,
2013-01-08 00:17:00,66.7,64.9,30.11,ENE,59,2.0,5.0,94,0.00,,SKC,0.00,VWS V14.01,2013-01-08 05:17:00,
2013-01-08 00:22:00,66.8,65.0,30.11,NE,45,4.0,7.0,94,0.00,,SKC,0.00,VWS V14.01,2013-01-08 05:22:00,
2013-01-08 00:27:00,66.8,65.0,30.11,NE,37,4.0,7.0,94,0.00,,SKC,0.00,VWS V14.01,2013-01-08 05:27:00,
2013-01-08 00:32:00,66.8,65.0,30.11,NE,34,5.0,6.0,94,0.00,,SKC,0.00,VWS V14.01,2013-01-08 05:32:00,
2013-01-08 00:37:00,66.8,65.0,30.11,NE,35,2.0,8.0,94,0.00,,SKC,0.00,VWS V14.01,2013-01-08 05:37:00,
2013-01-08 00:42:00,66.8,65.0,30.10,NE,38,5.0,8.0,94,0.00,,SKC,0.00,VWS V14.01,2013-01-08 05:42:00,
2013-01-08 00:47:00,66.7,64.9,30.10,NNE,30,4.0,8.0,94,0.00,,SKC,0.00,VWS V14.01,2013-01-08 05:47:00,
2013-01-08 00:52:00,66.7,64.9,30.10,NE,35,1.0,9.0,94,0.00,,SKC,0.00,VWS V14.01,2013-01-08 05:52:00,
2013-01-08 00:57:00,66.7,64.9,30.10,NE,43,6.0,9.0,94,0.00,,SKC,0.00,VWS V14.01,2013-01-08 05:57:00,
2013-01-08 01:02:00,66.6,64.8,30.10,NNE,27,3.0,6.0,94,0.00,,SKC,0.00,VWS V14.01,2013-01-08 06:02:00,
2013-01-08 01:07:00,66.6,64.8,30.10,NE,54,4.0,6.0,94,0.00,,SKC,0.00,VWS V14.01,2013-01-08 06:07:00,
2013-01-08 01:12:00,66.6,64.8,30.10,NNE,31,4.0,6.0,94,0.00,,SKC,0.00,VWS V14.01,2013-01-08 06:12:00,
2013-01-08 01:17:00,66.5,64.7,30.10,ENE,65,6.0,8.0,94,0.00,,SKC,0.00,VWS V14.01,2013-01-08 06:17:00,
2013-01-08 01:22:00,66.5,64.7,30.10,ENE,69,6.0,8.0,94,0.00,,SKC,0.00,VWS V14.01,2013-01-08 06:22:00,
2013-01-08 01:27:00,66.4,64.6,30.10,NNE,18,0.0,8.0,94,0.00,,SKC,0.00,VWS V14.01,2013-01-08 06:27:00,
2013-01-08 01:32:00,66.4,64.6,30.10,NE,35,2.0,6.0,94,0.00,,SKC,0.00,VWS V14.01,2013-01-08 06:32:00,
2013-01-08 01:37:00,66.4,64.6,30.10,NNE,31,1.0,6.0,94,0.00,,SKC,0.00,VWS V14.01,2013-01-08 06:37:00,
2013-01-08 01:42:00,66.4,64.6,30.10,NE,44,3.0,6.0,94,0.00,,SKC,0.00,VWS V14.01,2013-01-08 06:42:00,
2013-01-08 01:47:00,66.3,64.5,30.10,ENE,64,5.0,6.0,94,0.00,,SKC,0.00,VWS V14.01,2013-01-08 06:47:00,
2013-01-08 01:52:00,66.2,64.4,30.10,NE,39,1.0,7.0,94,0.00,,SKC,0.00,VWS V14.01,2013-01-08 06:52:00,
2013-01-08 01:57:00,66.2,64.4,30.10,ENE,66,1.0,7.0,94,0.00,,SKC,0.00,VWS V14.01,2013-01-08 06:57:00,
2013-01-08 02:02:00,66.2,64.4,30.10,NE,38,0.0,2.0,94,0.00,,SKC,0.00,VWS V14.01,2013-01-08 07:02:00,
2013-01-08 02:07:00,66.1,64.3,30.10,NE,46,1.0,6.0,94,0.00,,SKC,0.00,VWS V14.01,2013-01-08 07:07:00,
2013-01-08 02:12:00,66.1,64.3,30.10,NNE,26,1.0,6.0,94,0.00,,SKC,0.00,VWS V14.01,2013-01-08 07:12:00,
2013-01-08 02:17:00,66.0,64.2,30.10,NNE,33,1.0,6.0,94,0.00,,SKC,0.00,VWS V14.01,2013-01-08 07:17:00,
2013-01-08 02:22:00,66.0,64.2,30.09,NE,34,1.0,6.0,94,0.00,,SKC,0.00,VWS V14.01,2013-01-08 07:22:00,
2013-01-08 02:27:00,65.9,64.1,30.09,NNE,12,0.0,6.0,94,0.00,,SKC,0.00,VWS V14.01,2013-01-08 07:27:00,
2013-01-08 02:32:00,65.9,64.1,30.09,NNE,21,0.0,2.0,94,0.00,,SKC,0.00,VWS V14.01,2013-01-08 07:32:00,
2013-01-08 02:37:00,65.6,63.8,30.09,NNW,347,2.0,6.0,94,0.00,,SKC,0.00,VWS V14.01,2013-01-08 07:37:00,
2013-01-08 02:42:00,65.5,63.7,30.09,NNW,339,1.0,6.0,94,0.00,,SKC,0.00,VWS V14.01,2013-01-08 07:42:00,
2013-01-08 02:47:00,65.4,63.6,30.09,NNW,338,1.0,6.0,94,0.00,,SKC,0.00,VWS V14.01,2013-01-08 07:47:00,
2013-01-08 02:52:00,65.4,63.6,30.09,NE,35,2.0,6.0,94,0.00,,SKC,0.00,VWS V14.01,2013-01-08 07:52:00,
2013-01-08 02:57:00,65.3,63.5,30.09,ENE,72,0.0,6.0,94,0.00,,SKC,0.00,VWS V14.01,2013-01-08 07:57:00,
2013-01-08 03:02:00,65.4,63.6,30.09,NE,49,3.0,3.0,94,0.00,,SKC,0.00,VWS V14.01,2013-01-08 08:02:00,
2013-01-08 03:07:00,65.3,63.5,30.09,NW,319,2.0,6.0,94,0.00,,SKC,0.00,VWS V14.01,2013-01-08 08:07:00,
2013-01-08 03:12:00,65.2,63.4,30.09,NE,34,0.0,6.0,94,0.00,,SKC,0.00,VWS V14.01,2013-01-08 08:12:00,
2013-01-08 03:17:00,65.2,63.4,30.09,NNE,28,1.0,6.0,94,0.00,,SKC,0.00,VWS V14.01,2013-01-08 08:17:00,
2013-01-08 03:22:00,65.2,63.7,30.09,NNE,27,1.0,6.0,95,0.00,,SKC,0.00,VWS V14.01,2013-01-08 08:22:00,
2013-01-08 03:27:00,65.3,63.8,30.09,NNW,336,3.0,6.0,95,0.00,,SKC,0.00,VWS V14.01,2013-01-08 08:27:00,
2013-01-08 03:32:00,65.4,63.9,30.08,NNE,26,5.0,5.0,95,0.00,,SKC,0.00,VWS V14.01,2013-01-08 08:32:00,
2013-01-08 03:37:00,65.5,64.0,30.08,NE,39,3.0,9.0,95,0.00,,SKC,0.00,VWS V14.01,2013-01-08 08:37:00,
2013-01-08 03:42:00,65.6,64.1,30.08,NNE,30,3.0,9.0,95,0.00,,SKC,0.00,VWS V14.01,2013-01-08 08:42:00,
2013-01-08 03:47:00,65.6,64.1,30.08,NNW,346,0.0,9.0,95,0.00,,SKC,0.00,VWS V14.01,2013-01-08 08:47:00,
2013-01-08 03:52:00,65.6,64.1,30.08,NE,51,3.0,9.0,95,0.00,,SKC,0.00,VWS V14.01,2013-01-08 08:52:00,
2013-01-08 03:57:00,65.6,64.1,30.08,NNE,28,2.0,9.0,95,0.00,,SKC,0.00,VWS V14.01,2013-01-08 08:57:00,
2013-01-08 04:02:00,65.5,64.0,30.08,NNE,31,4.0,9.0,95,0.00,,SKC,0.00,VWS V14.01,2013-01-08 09:02:00,
2013-01-08 04:07:00,65.5,64.0,30.08,NE,41,2.0,9.0,95,0.00,,SKC,0.00,VWS V14.01,2013-01-08 09:07:00,
2013-01-08 04:11:00,65.5,64.0,30.08,NNE,16,1.0,9.0,95,0.00,,SKC,0.00,VWS V14.01,2013-01-08 09:11:00,
2013-01-08 04:16:00,65.4,63.9,30.08,NE,47,2.0,9.0,95,0.00,,SKC,0.00,VWS V14.01,2013-01-08 09:16:00,
2013-01-08 04:21:00,65.4,63.9,30.08,NNE,32,1.0,9.0,95,0.00,,SKC,0.00,VWS V14.01,2013-01-08 09:21:00,
2013-01-08 04:26:00,65.4,63.9,30.08,NNE,16,2.0,9.0,95,0.00,,SKC,0.00,VWS V14.01,2013-01-08 09:26:00,
2013-01-08 04:31:00,65.4,63.9,30.08,East,89,2.0,3.0,95,0.00,,SKC,0.00,VWS V14.01,2013-01-08 09:31:00,
2013-01-08 04:36:00,65.4,63.9,30.08,NNE,18,2.0,5.0,95,0.00,,SKC,0.00,VWS V14.01,2013-01-08 09:36:00,
2013-01-08 04:41:00,65.4,63.9,30.08,NNE,17,5.0,7.0,95,0.00,,SKC,0.00,VWS V14.01,2013-01-08 09:41:00,
2013-01-08 04:46:00,65.4,63.9,30.08,ENE,61,5.0,7.0,95,0.00,,SKC,0.00,VWS V14.01,2013-01-08 09:46:00,
2013-01-08 04:51:00,65.4,63.9,30.08,ENE,72,2.0,7.0,95,0.00,,SKC,0.00,VWS V14.01,2013-01-08 09:51:00,
2013-01-08 04:56:00,65.4,63.9,30.08,NNE,26,4.0,7.0,95,0.00,,SKC,0.00,VWS V14.01,2013-01-08 09:56:00,
2013-01-08 05:01:00,65.4,63.9,30.08,NNE,32,0.0,2.0,95,0.00,,SKC,0.00,VWS V14.01,2013-01-08 10:01:00,
2013-01-08 05:06:00,65.3,63.8,30.08,NE,37,1.0,4.0,95,0.00,,SKC,0.00,VWS V14.01,2013-01-08 10:06:00,
2013-01-08 05:11:00,65.3,63.8,30.09,ENE,66,4.0,4.0,95,0.00,,SKC,0.00,VWS V14.01,2013-01-08 10:11:00,
2013-01-08 05:16:00,65.4,64.2,30.09,ENE,57,6.0,8.0,96,0.00,,SKC,0.00,VWS V14.01,2013-01-08 10:16:00,
2013-01-08 05:21:00,65.4,64.2,30.09,ENE,60,2.0,8.0,96,0.00,,SKC,0.00,VWS V14.01,2013-01-08 10:21:00,
2013-01-08 05:26:00,65.5,64.3,30.09,NE,49,4.0,8.0,96,0.00,,SKC,0.00,VWS V14.01,2013-01-08 10:26:00,
2013-01-08 05:31:00,65.5,64.3,30.10,NNW,341,0.0,1.0,96,0.00,,SKC,0.00,VWS V14.01,2013-01-08 10:31:00,
2013-01-08 05:36:00,65.4,63.9,30.10,NNW,345,5.0,6.0,95,0.00,,SKC,0.00,VWS V14.01,2013-01-08 10:36:00,
2013-01-08 05:41:00,65.4,64.2,30.10,NNW,336,1.0,6.0,96,0.00,,SKC,0.00,VWS V14.01,2013-01-08 10:41:00,
2013-01-08 05:46:00,65.4,64.2,30.10,North,11,5.0,6.0,96,0.00,,SKC,0.00,VWS V14.01,2013-01-08 10:46:00,
2013-01-08 05:51:00,65.5,64.3,30.11,NE,49,4.0,6.0,96,0.00,,SKC,0.00,VWS V14.01,2013-01-08 10:51:00,
2013-01-08 05:56:00,65.5,64.3,30.11,NE,47,6.0,6.0,96,0.00,,SKC,0.00,VWS V14.01,2013-01-08 10:56:00,
2013-01-08 06:01:00,65.5,64.3,30.11,NE,44,2.0,4.0,96,0.00,,SKC,0.00,VWS V14.01,2013-01-08 11:01:00,
2013-01-08 06:06:00,65.5,64.3,30.11,NNE,24,6.0,8.0,96,0.00,,SKC,0.00,VWS V14.01,2013-01-08 11:06:00,
2013-01-08 06:11:00,65.5,64.3,30.11,NNW,334,0.0,8.0,96,0.00,,SKC,0.00,VWS V14.01,2013-01-08 11:11:00,
2013-01-08 06:16:00,65.5,64.3,30.11,NE,44,4.0,8.0,96,0.00,,SKC,0.00,VWS V14.01,2013-01-08 11:16:00,
2013-01-08 06:21:00,65.4,64.2,30.12,NE,46,0.0,8.0,96,0.00,,SKC,0.00,VWS V14.01,2013-01-08 11:21:00,
2013-01-08 06:26:00,65.4,64.2,30.12,NNE,28,0.0,8.0,96,0.00,,SKC,0.00,VWS V14.01,2013-01-08 11:26:00,
2013-01-08 06:31:00,65.4,64.2,30.12,NE,50,5.0,6.0,96,0.00,,SKC,0.00,VWS V14.01,2013-01-08 11:31:00,
2013-01-08 06:36:00,65.4,64.2,30.12,NNE,32,1.0,6.0,96,0.00,,SKC,0.00,VWS V14.01,2013-01-08 11:36:00,
2013-01-08 06:41:00,65.4,64.2,30.12,NE,40,2.0,6.0,96,0.00,,SKC,0.00,VWS V14.01,2013-01-08 11:41:00,
2013-01-08 06:46:00,65.4,64.2,30.12,NE,42,1.0,6.0,96,0.00,,SKC,0.00,VWS V14.01,2013-01-08 11:46:00,
2013-01-08 06:51:00,65.5,64.3,30.12,ENE,65,5.0,6.0,96,0.00,,SKC,0.00,VWS V14.01,2013-01-08 11:51:00,
2013-01-08 06:56:00,65.5,64.3,30.12,NE,41,4.0,8.0,96,0.00,,SKC,0.00,VWS V14.01,2013-01-08 11:56:00,
2013-01-08 07:01:00,65.5,64.3,30.12,NE,48,1.0,5.0,96,0.00,,SKC,0.00,VWS V14.01,2013-01-08 12:01:00,
2013-01-08 07:06:00,65.5,64.3,30.12,ENE,59,4.0,6.0,96,0.00,,SKC,0.00,VWS V14.01,2013-01-08 12:06:00,
2013-01-08 07:12:00,65.5,64.3,30.13,NE,40,2.0,6.0,96,0.00,,SKC,0.00,VWS V14.01,2013-01-08 12:12:00,
2013-01-08 07:17:00,65.5,64.3,30.13,NE,42,4.0,6.0,96,0.00,,SKC,0.00,VWS V14.01,2013-01-08 12:17:00,
2013-01-08 07:22:00,65.6,64.4,30.13,ENE,66,1.0,7.0,96,0.00,,SKC,0.00,VWS V14.01,2013-01-08 12:22:00,
2013-01-08 07:27:00,65.7,64.5,30.13,NE,46,0.0,7.0,96,0.00,,SKC,0.00,VWS V14.01,2013-01-08 12:27:00,
2013-01-08 07:32:00,65.7,64.5,30.13,NE,36,2.0,5.0,96,0.00,,SKC,0.00,VWS V14.01,2013-01-08 12:32:00,
2013-01-08 07:37:00,65.8,64.6,30.14,NNW,328,1.0,6.0,96,0.00,,SKC,0.00,VWS V14.01,2013-01-08 12:37:00,
2013-01-08 07:42:00,65.9,64.7,30.14,NNE,16,2.0,6.0,96,0.00,,SKC,0.00,VWS V14.01,2013-01-08 12:42:00,
2013-01-08 07:47:00,65.9,64.7,30.14,NE,56,1.0,6.0,96,0.00,,SKC,0.00,VWS V14.01,2013-01-08 12:47:00,
2013-01-08 07:52:00,66.0,64.8,30.14,NNW,340,0.0,6.0,96,0.00,,SKC,0.00,VWS V14.01,2013-01-08 12:52:00,
2013-01-08 07:57:00,66.1,64.9,30.14,NE,55,6.0,8.0,96,0.00,,SKC,0.00,VWS V14.01,2013-01-08 12:57:00,
2013-01-08 08:02:00,66.1,64.9,30.14,NE,42,6.0,6.0,96,0.00,,SKC,0.00,VWS V14.01,2013-01-08 13:02:00,
2013-01-08 08:07:00,66.2,65.0,30.15,NE,51,7.0,8.0,96,0.00,,SKC,0.00,VWS V14.01,2013-01-08 13:07:00,
2013-01-08 08:12:00,66.3,65.1,30.15,NE,37,1.0,8.0,96,0.00,,SKC,0.00,VWS V14.01,2013-01-08 13:12:00,
2013-01-08 08:17:00,66.3,65.1,30.15,NE,44,2.0,9.0,96,0.00,,SKC,0.00,VWS V14.01,2013-01-08 13:17:00,
2013-01-08 08:22:00,66.3,65.1,30.16,ENE,59,4.0,9.0,96,0.00,,SKC,0.00,VWS V14.01,2013-01-08 13:22:00,
2013-01-08 08:26:00,66.4,65.2,30.16,NNE,26,2.0,9.0,96,0.00,,SKC,0.00,VWS V14.01,2013-01-08 13:26:00,
2013-01-08 08:31:00,66.4,65.2,30.16,ENE,69,2.0,5.0,96,0.00,,SKC,0.00,VWS V14.01,2013-01-08 13:31:00,
2013-01-08 08:36:00,66.4,65.2,30.17,ENE,64,6.0,9.0,96,0.00,,SKC,0.00,VWS V14.01,2013-01-08 13:36:00,
2013-01-08 08:41:00,66.6,65.4,30.17,NE,48,2.0,9.0,96,0.00,,SKC,0.00,VWS V14.01,2013-01-08 13:41:00,
2013-01-08 08:46:00,66.7,65.5,30.17,NNE,27,5.0,10.0,96,0.00,,SKC,0.00,VWS V14.01,2013-01-08 13:46:00,
2013-01-08 08:51:00,66.9,65.7,30.17,NE,35,4.0,10.0,96,0.00,,SKC,0.00,VWS V14.01,2013-01-08 13:51:00,
2013-01-08 08:56:00,67.0,65.8,30.17,NE,40,0.0,10.0,96,0.00,,SKC,0.00,VWS V14.01,2013-01-08 13:56:00,
2013-01-08 09:01:00,67.2,66.0,30.17,NE,37,2.0,4.0,96,0.00,,SKC,0.00,VWS V14.01,2013-01-08 14:01:00,
2013-01-08 09:06:00,67.3,66.1,30.18,NNE,17,2.0,6.0,96,0.00,,SKC,0.00,VWS V14.01,2013-01-08 14:06:00,
2013-01-08 09:11:00,67.6,66.4,30.18,NNE,30,0.0,6.0,96,0.00,,SKC,0.00,VWS V14.01,2013-01-08 14:11:00,
2013-01-08 09:16:00,67.6,66.4,30.18,NE,41,5.0,8.0,96,0.00,,SKC,0.00,VWS V14.01,2013-01-08 14:16:00,
2013-01-08 09:21:00,67.8,66.6,30.18,ENE,66,5.0,8.0,96,0.00,,SKC,0.00,VWS V14.01,2013-01-08 14:21:00,
2013-01-08 09:26:00,68.0,66.8,30.18,NE,51,2.0,8.0,96,0.00,,SKC,0.00,VWS V14.01,2013-01-08 14:26:00,
2013-01-08 09:31:00,68.2,67.0,30.18,NE,54,7.0,7.0,96,0.00,,SKC,0.00,VWS V14.01,2013-01-08 14:31:00,
2013-01-08 09:36:00,68.4,67.2,30.18,ENE,61,3.0,7.0,96,0.00,,SKC,0.00,VWS V14.01,2013-01-08 14:36:00,
2013-01-08 09:41:00,68.6,67.4,30.18,NE,56,7.0,8.0,96,0.00,,SKC,0.00,VWS V14.01,2013-01-08 14:41:00,
2013-01-08 09:46:00,68.8,67.6,30.18,NE,46,6.0,9.0,96,0.00,,SKC,0.00,VWS V14.01,2013-01-08 14:46:00,
2013-01-08 09:51:00,69.2,68.0,30.18,NE,54,9.0,9.0,96,0.00,,SKC,0.00,VWS V14.01,2013-01-08 14:51:00,
2013-01-08 09:56:00,69.5,68.3,30.18,NNW,334,4.0,9.0,96,0.00,,SKC,0.00,VWS V14.01,2013-01-08 14:56:00,
2013-01-08 10:01:00,70.0,68.8,30.18,East,94,6.0,6.0,96,0.00,,SKC,0.00,VWS V14.01,2013-01-08 15:01:00,
2013-01-08 10:06:00,70.6,69.1,30.18,East,101,1.0,6.0,95,0.00,,SKC,0.00,VWS V14.01,2013-01-08 15:06:00,
2013-01-08 10:11:00,71.5,70.0,30.18,ENE,60,4.0,7.0,95,0.00,,SKC,0.00,VWS V14.01,2013-01-08 15:11:00,
2013-01-08 10:16:00,72.0,70.2,30.18,ESE,103,5.0,7.0,94,0.00,,SKC,0.00,VWS V14.01,2013-01-08 15:16:00,
2013-01-08 10:21:00,72.8,70.7,30.18,ENE,78,5.0,7.0,93,0.00,,SKC,0.00,VWS V14.01,2013-01-08 15:21:00,
2013-01-08 10:26:00,73.3,70.8,30.17,NE,55,6.0,7.0,92,0.00,,SKC,0.00,VWS V14.01,2013-01-08 15:26:00,
2013-01-08 10:31:00,74.4,71.6,30.17,East,95,2.0,6.0,91,0.00,,SKC,0.00,VWS V14.01,2013-01-08 15:31:00,
2013-01-08 10:36:00,75.0,71.5,30.17,SE,125,5.0,8.0,89,0.00,,SKC,0.00,VWS V14.01,2013-01-08 15:36:00,
2013-01-08 10:41:00,75.4,71.3,30.17,ENE,61,1.0,8.0,87,0.00,,SKC,0.00,VWS V14.01,2013-01-08 15:41:00,
2013-01-08 10:46:00,76.0,71.5,30.17,East,82,6.0,9.0,86,0.00,,SKC,0.00,VWS V14.01,2013-01-08 15:46:00,
2013-01-08 10:51:00,76.5,71.3,30.17,ENE,61,4.0,10.0,84,0.00,,SKC,0.00,VWS V14.01,2013-01-08 15:51:00,
2013-01-08 10:56:00,76.7,71.5,30.17,NE,46,1.0,10.0,84,0.00,,SKC,0.00,VWS V14.01,2013-01-08 15:56:00,
2013-01-08 11:01:00,77.0,71.1,30.16,ENE,78,8.0,11.0,82,0.00,,SKC,0.00,VWS V14.01,2013-01-08 16:01:00,
2013-01-08 11:06:00,77.2,71.3,30.16,NE,38,4.0,13.0,82,0.00,,SKC,0.00,VWS V14.01,2013-01-08 16:06:00,
2013-01-08 11:11:00,77.7,71.4,30.16,ENE,65,6.0,13.0,81,0.00,,SKC,0.00,VWS V14.01,2013-01-08 16:11:00,
2013-01-08 11:16:00,78.2,71.9,30.16,ENE,78,10.0,13.0,81,0.00,,SKC,0.00,VWS V14.01,2013-01-08 16:16:00,
2013-01-08 11:21:00,78.7,72.0,30.16,East,89,6.0,13.0,80,0.00,,SKC,0.00,VWS V14.01,2013-01-08 16:21:00,
2013-01-08 11:26:00,79.0,71.9,30.15,ENE,59,4.0,13.0,79,0.00,,SKC,0.00,VWS V14.01,2013-01-08 16:26:00,
2013-01-08 11:31:00,79.4,72.3,30.15,ENE,69,6.0,7.0,79,0.00,,SKC,0.00,VWS V14.01,2013-01-08 16:31:00,
2013-01-08 11:36:00,79.9,72.4,30.15,ENE,61,11.0,11.0,78,0.00,,SKC,0.00,VWS V14.01,2013-01-08 16:36:00,
2013-01-08 11:41:00,80.0,71.0,30.15,SE,146,7.0,12.0,74,0.00,,SKC,0.00,VWS V14.01,2013-01-08 16:41:00,
2013-01-08 11:46:00,80.2,71.2,30.14,ENE,59,5.0,12.0,74,0.00,,SKC,0.00,VWS V14.01,2013-01-08 16:46:00,
2013-01-08 11:51:00,80.5,71.5,30.14,ENE,60,7.0,12.0,74,0.00,,SKC,0.00,VWS V14.01,2013-01-08 16:51:00,
2013-01-08 11:56:00,80.7,70.4,30.14,NE,51,6.0,14.0,71,0.00,,SKC,0.00,VWS V14.01,2013-01-08 16:56:00,
2013-01-08 12:01:00,80.2,70.4,30.14,East,95,4.0,8.0,72,0.00,,SKC,0.00,VWS V14.01,2013-01-08 17:01:00,
2013-01-08 12:06:00,80.3,70.5,30.13,ENE,65,2.0,11.0,72,0.00,,SKC,0.00,VWS V14.01,2013-01-08 17:06:00,
2013-01-08 12:11:00,81.3,71.4,30.13,NE,49,9.0,11.0,72,0.00,,SKC,0.00,VWS V14.01,2013-01-08 17:11:00,
2013-01-08 12:16:00,81.6,70.0,30.13,East,95,13.0,13.0,68,0.00,,SKC,0.00,VWS V14.01,2013-01-08 17:16:00,
2013-01-08 12:21:00,81.5,69.9,30.13,NE,51,7.0,14.0,68,0.00,,SKC,0.00,VWS V14.01,2013-01-08 17:21:00,
2013-01-08 12:26:00,81.6,70.0,30.12,ENE,67,10.0,14.0,68,0.00,,SKC,0.00,VWS V14.01,2013-01-08 17:26:00,
2013-01-08 12:31:00,82.1,70.1,30.12,SE,134,6.0,10.0,67,0.00,,SKC,0.00,VWS V14.01,2013-01-08 17:31:00,
2013-01-08 12:37:00,82.1,69.2,30.12,East,88,8.0,13.0,65,0.00,,SKC,0.00,VWS V14.01,2013-01-08 17:37:00,
2013-01-08 12:42:00,82.6,70.5,30.12,East,92,1.0,13.0,67,0.00,,SKC,0.00,VWS V14.01,2013-01-08 17:42:00,
2013-01-08 12:47:00,83.2,69.8,30.11,East,95,6.0,13.0,64,0.00,,SKC,0.00,VWS V14.01,2013-01-08 17:47:00,
2013-01-08 12:52:00,83.7,69.8,30.11,ESE,110,8.0,13.0,63,0.00,,SKC,0.00,VWS V14.01,2013-01-08 17:52:00,
2013-01-08 12:57:00,83.0,70.0,30.11,NNE,28,5.0,13.0,65,0.00,,SKC,0.00,VWS V14.01,2013-01-08 17:57:00,
2013-01-08 13:02:00,82.8,69.8,30.11,ENE,65,7.0,11.0,65,0.00,,SKC,0.00,VWS V14.01,2013-01-08 18:02:00,
2013-01-08 13:07:00,83.4,69.9,30.11,ENE,62,6.0,11.0,64,0.00,,SKC,0.00,VWS V14.01,2013-01-08 18:07:00,
2013-01-08 13:12:00,84.1,69.7,30.10,NE,35,9.0,11.0,62,0.00,,SKC,0.00,VWS V14.01,2013-01-08 18:12:00,
2013-01-08 13:17:00,84.2,68.8,30.10,SSE,158,1.0,11.0,60,0.00,,SKC,0.00,VWS V14.01,2013-01-08 18:17:00,
2013-01-08 13:22:00,84.7,68.8,30.10,ESE,103,9.0,12.0,59,0.00,,SKC,0.00,VWS V14.01,2013-01-08 18:22:00,
2013-01-08 13:27:00,84.3,69.4,30.10,NE,55,11.0,12.0,61,0.00,,SKC,0.00,VWS V14.01,2013-01-08 18:27:00,
2013-01-08 13:32:00,83.7,69.8,30.09,NE,51,7.0,7.0,63,0.00,,SKC,0.00,VWS V14.01,2013-01-08 18:32:00,
2013-01-08 13:37:00,83.8,68.9,30.09,NNE,31,8.0,13.0,61,0.00,,SKC,0.00,VWS V14.01,2013-01-08 18:37:00,
2013-01-08 13:42:00,84.0,68.6,30.08,NE,53,7.0,13.0,60,0.00,,SKC,0.00,VWS V14.01,2013-01-08 18:42:00,
2013-01-08 13:47:00,84.6,69.2,30.09,East,98,2.0,13.0,60,0.00,,SKC,0.00,VWS V14.01,2013-01-08 18:47:00,
2013-01-08 13:52:00,84.4,68.0,30.08,NE,44,2.0,13.0,58,0.00,,SKC,0.00,VWS V14.01,2013-01-08 18:52:00,
2013-01-08 13:57:00,84.8,67.9,30.08,ESE,111,6.0,13.0,57,0.00,,SKC,0.00,VWS V14.01,2013-01-08 18:57:00,
2013-01-08 14:02:00,84.9,68.0,30.08,ENE,62,4.0,11.0,57,0.00,,SKC,0.00,VWS V14.01,2013-01-08 19:02:00,
2013-01-08 14:07:00,84.9,68.5,30.08,SE,126,6.0,11.0,58,0.00,,SKC,0.00,VWS V14.01,2013-01-08 19:07:00,
2013-01-08 14:12:00,84.9,69.0,30.08,NNE,22,7.0,11.0,59,0.00,,SKC,0.00,VWS V14.01,2013-01-08 19:12:00,
2013-01-08 14:17:00,84.6,68.2,30.08,NE,51,11.0,14.0,58,0.00,,SKC,0.00,VWS V14.01,2013-01-08 19:17:00,
2013-01-08 14:22:00,84.6,68.7,30.08,ENE,65,4.0,14.0,59,0.00,,SKC,0.00,VWS V14.01,2013-01-08 19:22:00,
2013-01-08 14:27:00,84.4,67.5,30.08,SE,128,7.0,14.0,57,0.00,,SKC,0.00,VWS V14.01,2013-01-08 19:27:00,
2013-01-08 14:32:00,84.2,67.3,30.08,ENE,65,3.0,9.0,57,0.00,,SKC,0.00,VWS V14.01,2013-01-08 19:32:00,
2013-01-08 14:37:00,84.6,67.7,30.08,ENE,75,2.0,9.0,57,0.00,,SKC,0.00,VWS V14.01,2013-01-08 19:37:00,
2013-01-08 14:42:00,85.0,68.1,30.07,NNE,22,2.0,9.0,57,0.00,,SKC,0.00,VWS V14.01,2013-01-08 19:42:00,
2013-01-08 14:47:00,84.4,68.0,30.07,North,10,5.0,13.0,58,0.00,,SKC,0.00,VWS V14.01,2013-01-08 19:47:00,
2013-01-08 14:52:00,83.4,67.6,30.08,NE,40,8.0,13.0,59,0.00,,SKC,0.00,VWS V14.01,2013-01-08 19:52:00,
2013-01-08 14:57:00,82.9,67.6,30.07,ENE,59,8.0,13.0,60,0.00,,SKC,0.00,VWS V14.01,2013-01-08 19:57:00,
2013-01-08 15:02:00,83.1,67.8,30.07,NE,49,0.0,9.0,60,0.00,,SKC,0.00,VWS V14.01,2013-01-08 20:02:00,
2013-01-08 15:07:00,83.7,67.4,30.07,SE,129,8.0,10.0,58,0.00,,SKC,0.00,VWS V14.01,2013-01-08 20:07:00,
2013-01-08 15:12:00,84.1,67.2,30.07,ENE,76,4.0,10.0,57,0.00,,SKC,0.00,VWS V14.01,2013-01-08 20:12:00,
2013-01-08 15:17:00,84.3,67.9,30.07,ENE,65,6.0,10.0,58,0.00,,SKC,0.00,VWS V14.01,2013-01-08 20:17:00,
2013-01-08 15:22:00,84.5,67.6,30.07,ENE,67,11.0,13.0,57,0.00,,SKC,0.00,VWS V14.01,2013-01-08 20:22:00,
2013-01-08 15:27:00,84.6,68.7,30.07,NE,48,7.0,13.0,59,0.00,,SKC,0.00,VWS V14.01,2013-01-08 20:27:00,
2013-01-08 15:32:00,83.9,68.1,30.07,NE,51,9.0,14.0,59,0.00,,SKC,0.00,VWS V14.01,2013-01-08 20:32:00,
2013-01-08 15:37:00,83.2,68.4,30.07,ENE,58,10.0,16.0,61,0.00,,SKC,0.00,VWS V14.01,2013-01-08 20:37:00,
2013-01-08 15:42:00,82.6,67.8,30.07,NE,50,8.0,16.0,61,0.00,,SKC,0.00,VWS V14.01,2013-01-08 20:42:00,
2013-01-08 15:47:00,82.4,68.1,30.07,ENE,67,6.0,16.0,62,0.00,,SKC,0.00,VWS V14.01,2013-01-08 20:47:00,
2013-01-08 15:52:00,82.1,68.3,30.07,NNE,29,8.0,16.0,63,0.00,,SKC,0.00,VWS V14.01,2013-01-08 20:52:00,
2013-01-08 15:57:00,82.1,68.7,30.07,NE,40,1.0,16.0,64,0.00,,SKC,0.00,VWS V14.01,2013-01-08 20:57:00,
2013-01-08 16:02:00,82.7,68.4,30.07,ENE,78,7.0,11.0,62,0.00,,SKC,0.00,VWS V14.01,2013-01-08 21:02:00,
2013-01-08 16:07:00,83.0,69.1,30.07,NE,51,9.0,11.0,63,0.00,,SKC,0.00,VWS V14.01,2013-01-08 21:07:00,
2013-01-08 16:12:00,82.6,69.2,30.07,NE,35,4.0,11.0,64,0.00,,SKC,0.00,VWS V14.01,2013-01-08 21:12:00,
2013-01-08 16:17:00,82.5,69.1,30.07,NE,43,11.0,12.0,64,0.00,,SKC,0.00,VWS V14.01,2013-01-08 21:17:00,
2013-01-08 16:22:00,82.5,69.6,30.07,NE,38,8.0,12.0,65,0.00,,SKC,0.00,VWS V14.01,2013-01-08 21:22:00,
2013-01-08 16:27:00,82.6,69.7,30.07,ENE,59,7.0,12.0,65,0.00,,SKC,0.00,VWS V14.01,2013-01-08 21:27:00,
2013-01-08 16:32:00,82.7,69.8,30.07,NE,40,5.0,7.0,65,0.00,,SKC,0.00,VWS V14.01,2013-01-08 21:32:00,
2013-01-08 16:37:00,82.5,69.6,30.07,NE,39,4.0,10.0,65,0.00,,SKC,0.00,VWS V14.01,2013-01-08 21:37:00,
2013-01-08 16:42:00,82.2,69.3,30.08,NE,46,5.0,10.0,65,0.00,,SKC,0.00,VWS V14.01,2013-01-08 21:42:00,
2013-01-08 16:47:00,81.9,69.4,30.08,East,83,4.0,10.0,66,0.00,,SKC,0.00,VWS V14.01,2013-01-08 21:47:00,
2013-01-08 16:52:00,81.6,68.2,30.08,SE,141,6.0,19.0,64,0.00,,SKC,0.00,VWS V14.01,2013-01-08 21:52:00,
2013-01-08 16:57:00,81.3,68.0,30.08,ENE,59,6.0,19.0,64,0.00,,SKC,0.00,VWS V14.01,2013-01-08 21:57:00,
2013-01-08 17:02:00,81.0,68.1,30.08,ENE,68,5.0,11.0,65,0.00,,SKC,0.00,VWS V14.01,2013-01-08 22:02:00,
2013-01-08 17:07:00,80.9,68.5,30.08,SE,137,5.0,14.0,66,0.00,,SKC,0.00,VWS V14.01,2013-01-08 22:07:00,
2013-01-08 17:12:00,80.7,68.3,30.08,ESE,121,6.0,14.0,66,0.00,,SKC,0.00,VWS V14.01,2013-01-08 22:12:00,
2013-01-08 17:17:00,80.5,68.5,30.08,ESE,109,1.0,14.0,67,0.00,,SKC,0.00,VWS V14.01,2013-01-08 22:17:00,
2013-01-08 17:22:00,80.3,68.3,30.09,NE,54,4.0,14.0,67,0.00,,SKC,0.00,VWS V14.01,2013-01-08 22:22:00,
2013-01-08 17:27:00,80.0,68.5,30.09,ENE,71,4.0,14.0,68,0.00,,SKC,0.00,VWS V14.01,2013-01-08 22:27:00,
2013-01-08 17:32:00,79.7,68.2,30.09,East,84,9.0,9.0,68,0.00,,SKC,0.00,VWS V14.01,2013-01-08 22:32:00,
2013-01-08 17:37:00,79.6,68.5,30.09,ESE,111,5.0,9.0,69,0.00,,SKC,0.00,VWS V14.01,2013-01-08 22:37:00,
2013-01-08 17:42:00,79.5,68.4,30.09,ESE,113,5.0,9.0,69,0.00,,SKC,0.00,VWS V14.01,2013-01-08 22:42:00,
2013-01-08 17:47:00,79.4,68.3,30.09,ESE,111,10.0,10.0,69,0.00,,SKC,0.00,VWS V14.01,2013-01-08 22:47:00,
2013-01-08 17:52:00,79.3,68.3,30.09,ENE,71,7.0,10.0,69,0.00,,SKC,0.00,VWS V14.01,2013-01-08 22:52:00,
2013-01-08 17:57:00,79.0,68.0,30.09,NNE,30,4.0,10.0,69,0.00,,SKC,0.00,VWS V14.01,2013-01-08 22:57:00,
2013-01-08 18:02:00,78.8,67.8,30.09,ESE,103,5.0,6.0,69,0.00,,SKC,0.00,VWS V14.01,2013-01-08 23:02:00,
2013-01-08 18:07:00,78.6,68.0,30.09,SE,126,1.0,7.0,70,0.00,,SKC,0.00,VWS V14.01,2013-01-08 23:07:00,
2013-01-08 18:12:00,78.3,68.1,30.09,ENE,76,4.0,7.0,71,0.00,,SKC,0.00,VWS V14.01,2013-01-08 23:12:00,
2013-01-08 18:17:00,78.0,67.8,30.10,NE,42,2.0,7.0,71,0.00,,SKC,0.00,VWS V14.01,2013-01-08 23:17:00,
2013-01-08 18:22:00,77.5,68.2,30.10,NE,48,0.0,7.0,73,0.00,,SKC,0.00,VWS V14.01,2013-01-08 23:22:00,
2013-01-08 18:27:00,77.1,68.2,30.10,NNE,29,1.0,7.0,74,0.00,,SKC,0.00,VWS V14.01,2013-01-08 23:27:00,
2013-01-08 18:32:00,76.7,68.2,30.10,NE,39,2.0,4.0,75,0.00,,SKC,0.00,VWS V14.01,2013-01-08 23:32:00,
2013-01-08 18:37:00,76.3,68.2,30.10,NE,37,1.0,5.0,76,0.00,,SKC,0.00,VWS V14.01,2013-01-08 23:37:00,
2013-01-08 18:42:00,76.1,68.4,30.10,NE,34,4.0,5.0,77,0.00,,SKC,0.00,VWS V14.01,2013-01-08 23:42:00,
2013-01-08 18:47:00,75.9,68.6,30.10,NE,40,4.0,5.0,78,0.00,,SKC,0.00,VWS V14.01,2013-01-08 23:47:00,
2013-01-08 18:52:00,75.9,68.6,30.10,NE,42,2.0,5.0,78,0.00,,SKC,0.00,VWS V14.01,2013-01-08 23:52:00,
2013-01-08 18:57:00,75.9,68.6,30.11,ENE,72,4.0,5.0,78,0.00,,SKC,0.00,VWS V14.01,2013-01-08 23:57:00,
2013-01-08 19:02:00,75.9,68.6,30.11,NE,34,0.0,7.0,78,0.00,,SKC,0.00,VWS V14.01,2013-01-09 00:02:00,
2013-01-08 19:07:00,75.8,68.5,30.11,ENE,57,1.0,7.0,78,0.00,,SKC,0.00,VWS V14.01,2013-01-09 00:07:00,
2013-01-08 19:12:00,75.7,68.4,30.11,NE,46,1.0,7.0,78,0.00,,SKC,0.00,VWS V14.01,2013-01-09 00:12:00,
2013-01-08 19:17:00,75.6,68.3,30.11,NE,48,1.0,7.0,78,0.00,,SKC,0.00,VWS V14.01,2013-01-09 00:17:00,
2013-01-08 19:22:00,75.4,68.4,30.11,NE,49,2.0,7.0,79,0.00,,SKC,0.00,VWS V14.01,2013-01-09 00:22:00,
2013-01-08 19:27:00,75.3,68.7,30.11,NNW,334,2.0,7.0,80,0.00,,SKC,0.00,VWS V14.01,2013-01-09 00:27:00,
2013-01-08 19:32:00,75.2,68.6,30.11,NE,48,1.0,4.0,80,0.00,,SKC,0.00,VWS V14.01,2013-01-09 00:32:00,
2013-01-08 19:37:00,75.1,68.9,30.11,ENE,60,2.0,5.0,81,0.00,,SKC,0.00,VWS V14.01,2013-01-09 00:37:00,
2013-01-08 19:42:00,75.1,68.5,30.11,NE,42,3.0,5.0,80,0.00,,SKC,0.00,VWS V14.01,2013-01-09 00:42:00,
2013-01-08 19:47:00,75.2,68.6,30.11,NE,53,4.0,5.0,80,0.00,,SKC,0.00,VWS V14.01,2013-01-09 00:47:00,
2013-01-08 19:52:00,75.2,68.6,30.12,NE,43,4.0,5.0,80,0.00,,SKC,0.00,VWS V14.01,2013-01-09 00:52:00,
2013-01-08 19:57:00,75.2,68.6,30.12,NNE,21,2.0,5.0,80,0.00,,SKC,0.00,VWS V14.01,2013-01-09 00:57:00,
2013-01-08 20:02:00,75.1,68.9,30.12,NE,35,5.0,5.0,81,0.00,,SKC,0.00,VWS V14.01,2013-01-09 01:02:00,
2013-01-08 20:07:00,74.9,68.7,30.12,NE,50,0.0,5.0,81,0.00,,SKC,0.00,VWS V14.01,2013-01-09 01:07:00,
2013-01-08 20:12:00,74.8,68.9,30.12,ENE,71,2.0,5.0,82,0.00,,SKC,0.00,VWS V14.01,2013-01-09 01:12:00,
2013-01-08 20:17:00,74.7,68.8,30.12,NE,51,0.0,5.0,82,0.00,,SKC,0.00,VWS V14.01,2013-01-09 01:17:00,
2013-01-08 20:22:00,74.7,68.8,30.12,NE,46,2.0,5.0,82,0.00,,SKC,0.00,VWS V14.01,2013-01-09 01:22:00,
2013-01-08 20:27:00,74.8,68.9,30.12,ENE,71,2.0,5.0,82,0.00,,SKC,0.00,VWS V14.01,2013-01-09 01:27:00,
2013-01-08 20:32:00,74.9,68.7,30.13,ENE,57,4.0,6.0,81,0.00,,SKC,0.00,VWS V14.01,2013-01-09 01:32:00,
2013-01-08 20:37:00,75.1,68.9,30.13,ENE,62,0.0,6.0,81,0.00,,SKC,0.00,VWS V14.01,2013-01-09 01:37:00,
2013-01-08 20:42:00,75.2,69.0,30.13,ENE,61,3.0,6.0,81,0.00,,SKC,0.00,VWS V14.01,2013-01-09 01:42:00,
2013-01-08 20:47:00,75.3,69.1,30.13,ENE,71,5.0,6.0,81,0.00,,SKC,0.00,VWS V14.01,2013-01-09 01:47:00,
2013-01-08 20:52:00,75.3,69.1,30.13,ENE,59,4.0,6.0,81,0.00,,SKC,0.00,VWS V14.01,2013-01-09 01:52:00,
2013-01-08 20:57:00,75.3,69.1,30.13,ENE,59,2.0,6.0,81,0.00,,SKC,0.00,VWS V14.01,2013-01-09 01:57:00,
2013-01-08 21:02:00,75.1,69.2,30.13,NE,38,3.0,7.0,82,0.00,,SKC,0.00,VWS V14.01,2013-01-09 02:02:00,
2013-01-08 21:07:00,75.0,69.1,30.13,NNW,332,1.0,7.0,82,0.00,,SKC,0.00,VWS V14.01,2013-01-09 02:07:00,
2013-01-08 21:12:00,74.7,68.8,30.13,NE,51,0.0,7.0,82,0.00,,SKC,0.00,VWS V14.01,2013-01-09 02:12:00,
2013-01-08 21:17:00,74.5,69.0,30.14,NE,54,5.0,7.0,83,0.00,,SKC,0.00,VWS V14.01,2013-01-09 02:17:00,
2013-01-08 21:22:00,74.3,68.8,30.14,NE,53,1.0,7.0,83,0.00,,SKC,0.00,VWS V14.01,2013-01-09 02:22:00,
2013-01-08 21:27:00,74.2,69.1,30.14,NE,39,2.0,7.0,84,0.00,,SKC,0.00,VWS V14.01,2013-01-09 02:27:00,
2013-01-08 21:32:00,74.2,69.1,30.14,NE,54,1.0,4.0,84,0.00,,SKC,0.00,VWS V14.01,2013-01-09 02:32:00,
2013-01-08 21:37:00,74.0,69.2,30.13,ENE,72,6.0,8.0,85,0.00,,SKC,0.00,VWS V14.01,2013-01-09 02:37:00,
2013-01-08 21:42:00,74.0,69.2,30.13,ENE,68,2.0,8.0,85,0.00,,SKC,0.00,VWS V14.01,2013-01-09 02:42:00,
2013-01-08 21:47:00,74.0,69.2,30.13,ENE,58,5.0,8.0,85,0.00,,SKC,0.00,VWS V14.01,2013-01-09 02:47:00,
2013-01-08 21:52:00,74.0,69.2,30.13,East,84,2.0,8.0,85,0.00,,SKC,0.00,VWS V14.01,2013-01-09 02:52:00,
2013-01-08 21:57:00,74.0,69.2,30.14,ENE,71,2.0,8.0,85,0.00,,SKC,0.00,VWS V14.01,2013-01-09 02:57:00,
2013-01-08 22:02:00,73.9,69.4,30.13,ENE,57,4.0,7.0,86,0.00,,SKC,0.00,VWS V14.01,2013-01-09 03:02:00,
2013-01-08 22:07:00,73.8,69.3,30.14,ENE,63,5.0,7.0,86,0.00,,SKC,0.00,VWS V14.01,2013-01-09 03:07:00,
2013-01-08 22:12:00,73.6,69.2,30.14,ESE,104,6.0,7.0,86,0.00,,SKC,0.00,VWS V14.01,2013-01-09 03:12:00,
2013-01-08 22:17:00,73.5,69.4,30.14,NE,49,2.0,7.0,87,0.00,,SKC,0.00,VWS V14.01,2013-01-09 03:17:00,
2013-01-08 22:22:00,73.4,69.3,30.14,ENE,69,2.0,7.0,87,0.00,,SKC,0.00,VWS V14.01,2013-01-09 03:22:00,
2013-01-08 22:27:00,73.2,69.1,30.14,NE,47,4.0,7.0,87,0.00,,SKC,0.00,VWS V14.01,2013-01-09 03:27:00,
2013-01-08 22:32:00,73.0,69.2,30.15,ENE,67,1.0,4.0,88,0.00,,SKC,0.00,VWS V14.01,2013-01-09 03:32:00,
2013-01-08 22:37:00,72.8,69.0,30.15,NE,43,5.0,5.0,88,0.00,,SKC,0.00,VWS V14.01,2013-01-09 03:37:00,
2013-01-08 22:42:00,72.5,68.8,30.15,NNE,21,2.0,5.0,88,0.00,,SKC,0.00,VWS V14.01,2013-01-09 03:42:00,
2013-01-08 22:47:00,72.3,68.9,30.15,ENE,61,1.0,5.0,89,0.00,,SKC,0.00,VWS V14.01,2013-01-09 03:47:00,
2013-01-08 22:52:00,72.2,68.8,30.15,ENE,76,4.0,5.0,89,0.00,,SKC,0.00,VWS V14.01,2013-01-09 03:52:00,
2013-01-08 22:57:00,72.1,69.0,30.15,NE,53,4.0,6.0,90,0.00,,SKC,0.00,VWS V14.01,2013-01-09 03:57:00,
2013-01-08 23:02:00,72.0,68.9,30.15,ENE,66,1.0,4.0,90,0.00,,SKC,0.00,VWS V14.01,2013-01-09 04:02:00,
2013-01-08 23:07:00,71.9,68.8,30.15,NE,44,4.0,5.0,90,0.00,,SKC,0.00,VWS V14.01,2013-01-09 04:07:00,
2013-01-08 23:12:00,71.9,69.1,30.15,NE,49,1.0,5.0,91,0.00,,SKC,0.00,VWS V14.01,2013-01-09 04:12:00,
2013-01-08 23:17:00,71.8,69.0,30.15,NE,51,4.0,5.0,91,0.00,,SKC,0.00,VWS V14.01,2013-01-09 04:17:00,
2013-01-08 23:22:00,71.7,68.9,30.15,NNE,30,2.0,5.0,91,0.00,,SKC,0.00,VWS V14.01,2013-01-09 04:22:00,
2013-01-08 23:27:00,71.6,68.8,30.15,NE,40,4.0,5.0,91,0.00,,SKC,0.00,VWS V14.01,2013-01-09 04:27:00,
2013-01-08 23:32:00,71.4,68.6,30.15,ENE,74,1.0,6.0,91,0.00,,SKC,0.00,VWS V14.01,2013-01-09 04:32:00,
2013-01-08 23:37:00,71.3,68.9,30.15,NE,49,6.0,6.0,92,0.00,,SKC,0.00,VWS V14.01,2013-01-09 04:37:00,
2013-01-08 23:42:00,71.2,68.8,30.15,ENE,65,2.0,6.0,92,0.00,,SKC,0.00,VWS V14.01,2013-01-09 04:42:00,
2013-01-08 23:47:00,71.1,68.7,30.15,NE,46,1.0,6.0,92,0.00,,SKC,0.00,VWS V14.01,2013-01-09 04:47:00,
2013-01-08 23:52:00,71.1,69.0,30.15,NE,35,2.0,6.0,93,0.00,,SKC,0.00,VWS V14.01,2013-01-09 04:52:00,
2013-01-08 23:57:00,71.0,68.9,30.15,NE,53,5.0,6.0,93,0.00,,SKC,0.00,VWS V14.01,2013-01-09 04:57:00,